sensor_id;sensor_type;location;lat;lon;timestamp;pressure;altitude;pressure_sealevel;temperature;humidity
56630;BME280;42502;40.732;-74.254;2023-04-06T00:01:52;101127.22;;;22.52;37.62
56630;BME280;42502;40.732;-74.254;2023-04-06T00:03:52;101124.06;;;22.53;37.47
56630;BME280;42502;40.732;-74.254;2023-04-06T00:05:53;101135.50;;;22.61;37.60
56630;BME280;42502;40.732;-74.254;2023-04-06T00:07:54;101137.28;;;22.65;37.32
56630;BME280;42502;40.732;-74.254;2023-04-06T00:09:56;101140.09;;;22.65;37.20
56630;BME280;42502;40.732;-74.254;2023-04-06T00:11:57;101129.28;;;22.67;37.32
56630;BME280;42502;40.732;-74.254;2023-04-06T00:13:58;101131.38;;;22.70;37.19
56630;BME280;42502;40.732;-74.254;2023-04-06T00:15:59;101135.13;;;22.75;37.18
56630;BME280;42502;40.732;-74.254;2023-04-06T00:18:00;101131.47;;;22.74;37.09
56630;BME280;42502;40.732;-74.254;2023-04-06T00:20:01;101139.56;;;22.76;37.54
56630;BME280;42502;40.732;-74.254;2023-04-06T00:22:02;101142.28;;;22.72;37.30
56630;BME280;42502;40.732;-74.254;2023-04-06T00:24:03;101137.94;;;22.75;37.44
56630;BME280;42502;40.732;-74.254;2023-04-06T00:26:04;101164.19;;;22.79;37.39
56630;BME280;42502;40.732;-74.254;2023-04-06T00:28:05;101193.66;;;22.81;37.45
56630;BME280;42502;40.732;-74.254;2023-04-06T00:30:07;101188.47;;;22.83;37.08
56630;BME280;42502;40.732;-74.254;2023-04-06T00:32:09;101188.97;;;22.85;37.11
56630;BME280;42502;40.732;-74.254;2023-04-06T00:34:10;101172.88;;;22.86;37.04
56630;BME280;42502;40.732;-74.254;2023-04-06T00:36:11;101171.69;;;22.87;36.96
56630;BME280;42502;40.732;-74.254;2023-04-06T00:38:12;101170.84;;;22.86;36.88
56630;BME280;42502;40.732;-74.254;2023-04-06T00:40:13;101165.94;;;22.83;36.90
56630;BME280;42502;40.732;-74.254;2023-04-06T00:42:14;101151.63;;;22.88;36.99
56630;BME280;42502;40.732;-74.254;2023-04-06T00:44:15;101156.41;;;22.88;36.80
56630;BME280;42502;40.732;-74.254;2023-04-06T00:46:15;101148.81;;;22.88;37.03
56630;BME280;42502;40.732;-74.254;2023-04-06T00:48:16;101147.50;;;22.86;36.83
56630;BME280;42502;40.732;-74.254;2023-04-06T00:50:17;101154.66;;;22.83;37.06
56630;BME280;42502;40.732;-74.254;2023-04-06T00:52:19;101159.13;;;22.84;36.86
56630;BME280;42502;40.732;-74.254;2023-04-06T00:54:20;101140.34;;;22.88;36.80
56630;BME280;42502;40.732;-74.254;2023-04-06T00:56:20;101131.41;;;22.86;36.86
56630;BME280;42502;40.732;-74.254;2023-04-06T00:58:21;101126.16;;;22.85;36.98
56630;BME280;42502;40.732;-74.254;2023-04-06T01:00:22;101131.91;;;22.88;37.01
56630;BME280;42502;40.732;-74.254;2023-04-06T01:02:24;101103.16;;;22.83;36.68
56630;BME280;42502;40.732;-74.254;2023-04-06T01:04:26;101109.59;;;22.83;37.05
56630;BME280;42502;40.732;-74.254;2023-04-06T01:06:28;101127.34;;;22.84;36.90
56630;BME280;42502;40.732;-74.254;2023-04-06T01:08:28;101119.97;;;22.79;36.73
56630;BME280;42502;40.732;-74.254;2023-04-06T01:10:29;101131.25;;;22.79;36.79
56630;BME280;42502;40.732;-74.254;2023-04-06T01:12:30;101117.41;;;22.74;36.72
56630;BME280;42502;40.732;-74.254;2023-04-06T01:14:31;101137.09;;;22.74;36.79
56630;BME280;42502;40.732;-74.254;2023-04-06T01:16:33;101136.66;;;22.72;36.77
56630;BME280;42502;40.732;-74.254;2023-04-06T01:18:34;101132.91;;;22.68;36.64
56630;BME280;42502;40.732;-74.254;2023-04-06T01:20:35;101145.38;;;22.67;36.78
56630;BME280;42502;40.732;-74.254;2023-04-06T01:22:36;101155.22;;;22.61;36.80
56630;BME280;42502;40.732;-74.254;2023-04-06T01:24:37;101158.53;;;22.63;36.84
56630;BME280;42502;40.732;-74.254;2023-04-06T01:26:40;101166.47;;;22.61;36.85
56630;BME280;42502;40.732;-74.254;2023-04-06T01:28:41;101160.03;;;22.60;36.81
56630;BME280;42502;40.732;-74.254;2023-04-06T01:30:42;101164.38;;;22.58;36.60
56630;BME280;42502;40.732;-74.254;2023-04-06T01:32:43;101152.22;;;22.53;36.85
56630;BME280;42502;40.732;-74.254;2023-04-06T01:34:43;101162.63;;;22.53;36.92
56630;BME280;42502;40.732;-74.254;2023-04-06T01:36:45;101148.56;;;22.53;36.67
56630;BME280;42502;40.732;-74.254;2023-04-06T01:38:46;101147.66;;;22.49;36.58
56630;BME280;42502;40.732;-74.254;2023-04-06T01:40:47;101151.28;;;22.49;36.76
56630;BME280;42502;40.732;-74.254;2023-04-06T01:42:48;101159.28;;;22.47;36.73
56630;BME280;42502;40.732;-74.254;2023-04-06T01:44:48;101154.81;;;22.46;36.65
56630;BME280;42502;40.732;-74.254;2023-04-06T01:46:49;101145.56;;;22.46;36.71
56630;BME280;42502;40.732;-74.254;2023-04-06T01:48:50;101141.00;;;22.41;36.67
56630;BME280;42502;40.732;-74.254;2023-04-06T01:50:51;101139.78;;;22.42;36.63
56630;BME280;42502;40.732;-74.254;2023-04-06T01:52:52;101147.78;;;22.40;36.52
56630;BME280;42502;40.732;-74.254;2023-04-06T01:54:53;101135.34;;;22.41;36.77
56630;BME280;42502;40.732;-74.254;2023-04-06T01:56:54;101130.91;;;22.40;36.74
56630;BME280;42502;40.732;-74.254;2023-04-06T01:58:54;101116.25;;;22.34;36.59
56630;BME280;42502;40.732;-74.254;2023-04-06T02:00:56;101134.06;;;22.39;36.69
56630;BME280;42502;40.732;-74.254;2023-04-06T02:02:56;101133.25;;;22.38;36.71
56630;BME280;42502;40.732;-74.254;2023-04-06T02:04:57;101141.22;;;22.36;36.64
56630;BME280;42502;40.732;-74.254;2023-04-06T02:06:58;101145.22;;;22.35;36.70
56630;BME280;42502;40.732;-74.254;2023-04-06T02:08:59;101147.91;;;22.31;36.47
56630;BME280;42502;40.732;-74.254;2023-04-06T02:11:00;101152.38;;;22.32;36.60
56630;BME280;42502;40.732;-74.254;2023-04-06T02:13:01;101166.81;;;22.31;36.65
56630;BME280;42502;40.732;-74.254;2023-04-06T02:15:01;101155.38;;;22.27;36.56
56630;BME280;42502;40.732;-74.254;2023-04-06T02:17:02;101167.13;;;22.29;36.65
56630;BME280;42502;40.732;-74.254;2023-04-06T02:19:03;101166.66;;;22.27;36.63
56630;BME280;42502;40.732;-74.254;2023-04-06T02:21:04;101156.59;;;22.26;36.68
56630;BME280;42502;40.732;-74.254;2023-04-06T02:23:05;101128.34;;;22.10;36.81
56630;BME280;42502;40.732;-74.254;2023-04-06T02:25:06;101140.63;;;22.18;36.78
56630;BME280;42502;40.732;-74.254;2023-04-06T02:27:07;101142.38;;;22.23;36.53
56630;BME280;42502;40.732;-74.254;2023-04-06T02:29:08;101134.28;;;22.21;36.65
56630;BME280;42502;40.732;-74.254;2023-04-06T02:31:08;101136.06;;;22.13;36.50
56630;BME280;42502;40.732;-74.254;2023-04-06T02:33:09;101137.72;;;22.14;36.53
56630;BME280;42502;40.732;-74.254;2023-04-06T02:35:10;101135.84;;;22.18;36.49
56630;BME280;42502;40.732;-74.254;2023-04-06T02:37:11;101139.00;;;22.17;36.65
56630;BME280;42502;40.732;-74.254;2023-04-06T02:39:12;101128.91;;;22.16;36.59
56630;BME280;42502;40.732;-74.254;2023-04-06T02:41:13;101128.13;;;22.15;36.50
56630;BME280;42502;40.732;-74.254;2023-04-06T02:43:14;101128.47;;;22.14;36.54
56630;BME280;42502;40.732;-74.254;2023-04-06T02:45:16;101116.72;;;22.12;36.55
56630;BME280;42502;40.732;-74.254;2023-04-06T02:47:17;101123.56;;;22.11;36.57
56630;BME280;42502;40.732;-74.254;2023-04-06T02:49:19;101115.47;;;22.09;36.61
56630;BME280;42502;40.732;-74.254;2023-04-06T02:51:20;101108.19;;;22.08;36.44
56630;BME280;42502;40.732;-74.254;2023-04-06T02:53:21;101112.16;;;22.07;36.59
56630;BME280;42502;40.732;-74.254;2023-04-06T02:55:22;101108.91;;;22.05;36.39
56630;BME280;42502;40.732;-74.254;2023-04-06T02:57:23;101098.00;;;22.04;36.60
56630;BME280;42502;40.732;-74.254;2023-04-06T02:59:24;101098.34;;;22.02;36.57
56630;BME280;42502;40.732;-74.254;2023-04-06T03:01:26;101093.53;;;22.03;36.57
56630;BME280;42502;40.732;-74.254;2023-04-06T03:03:27;101088.25;;;22.01;36.61
56630;BME280;42502;40.732;-74.254;2023-04-06T03:05:27;101085.44;;;22.01;36.46
56630;BME280;42502;40.732;-74.254;2023-04-06T03:07:28;101079.00;;;22.00;36.75
56630;BME280;42502;40.732;-74.254;2023-04-06T03:09:29;101065.31;;;21.99;36.46
56630;BME280;42502;40.732;-74.254;2023-04-06T03:11:30;101055.56;;;21.96;36.56
56630;BME280;42502;40.732;-74.254;2023-04-06T03:13:31;101063.44;;;21.91;36.56
56630;BME280;42502;40.732;-74.254;2023-04-06T03:15:32;101064.38;;;21.95;36.58
56630;BME280;42502;40.732;-74.254;2023-04-06T03:17:33;101057.94;;;21.94;36.64
56630;BME280;42502;40.732;-74.254;2023-04-06T03:19:34;101047.75;;;21.90;36.50
56630;BME280;42502;40.732;-74.254;2023-04-06T03:21:34;101047.84;;;21.93;36.54
56630;BME280;42502;40.732;-74.254;2023-04-06T03:23:35;101045.38;;;21.92;36.28
56630;BME280;42502;40.732;-74.254;2023-04-06T03:25:36;101046.56;;;21.91;36.59
56630;BME280;42502;40.732;-74.254;2023-04-06T03:27:37;101034.50;;;21.90;36.59
56630;BME280;42502;40.732;-74.254;2023-04-06T03:29:37;101039.66;;;21.88;36.58
56630;BME280;42502;40.732;-74.254;2023-04-06T03:31:38;101031.00;;;21.81;36.51
56630;BME280;42502;40.732;-74.254;2023-04-06T03:33:42;101042.34;;;21.85;36.61
56630;BME280;42502;40.732;-74.254;2023-04-06T03:35:45;101042.34;;;21.85;36.46
56630;BME280;42502;40.732;-74.254;2023-04-06T03:37:46;101043.28;;;21.89;36.61
56630;BME280;42502;40.732;-74.254;2023-04-06T03:39:47;101049.72;;;21.89;36.56
56630;BME280;42502;40.732;-74.254;2023-04-06T03:41:48;101050.78;;;21.85;36.38
56630;BME280;42502;40.732;-74.254;2023-04-06T03:43:48;101050.78;;;21.85;36.56
56630;BME280;42502;40.732;-74.254;2023-04-06T03:45:50;101047.16;;;21.84;36.38
56630;BME280;42502;40.732;-74.254;2023-04-06T03:47:51;101052.88;;;21.88;36.50
56630;BME280;42502;40.732;-74.254;2023-04-06T03:49:51;101049.97;;;21.84;36.68
56630;BME280;42502;40.732;-74.254;2023-04-06T03:51:52;101044.81;;;21.86;36.45
56630;BME280;42502;40.732;-74.254;2023-04-06T03:53:59;101049.63;;;21.86;36.54
56630;BME280;42502;40.732;-74.254;2023-04-06T03:56:00;101057.59;;;21.83;36.55
56630;BME280;42502;40.732;-74.254;2023-04-06T03:58:01;101050.31;;;21.82;36.47
56630;BME280;42502;40.732;-74.254;2023-04-06T04:00:03;101044.25;;;21.80;36.46
56630;BME280;42502;40.732;-74.254;2023-04-06T04:02:04;101046.22;;;21.80;36.52
56630;BME280;42502;40.732;-74.254;2023-04-06T04:04:05;101047.88;;;21.81;36.46
56630;BME280;42502;40.732;-74.254;2023-04-06T04:06:06;101041.31;;;21.77;36.62
56630;BME280;42502;40.732;-74.254;2023-04-06T04:08:06;101024.06;;;21.78;36.51
56630;BME280;42502;40.732;-74.254;2023-04-06T04:10:08;101017.19;;;21.76;36.38
56630;BME280;42502;40.732;-74.254;2023-04-06T04:12:09;101018.81;;;21.77;36.62
56630;BME280;42502;40.732;-74.254;2023-04-06T04:14:12;101018.00;;;21.76;36.59
56630;BME280;42502;40.732;-74.254;2023-04-06T04:16:13;101017.19;;;21.76;36.52
56630;BME280;42502;40.732;-74.254;2023-04-06T04:18:14;101005.34;;;21.70;36.53
56630;BME280;42502;40.732;-74.254;2023-04-06T04:20:15;101021.53;;;21.73;36.43
56630;BME280;42502;40.732;-74.254;2023-04-06T04:22:16;101023.16;;;21.74;36.45
56630;BME280;42502;40.732;-74.254;2023-04-06T04:24:17;101017.41;;;21.71;36.25
56630;BME280;42502;40.732;-74.254;2023-04-06T04:26:18;101030.19;;;21.68;36.68
56630;BME280;42502;40.732;-74.254;2023-04-06T04:28:21;101021.06;;;21.71;36.48
56630;BME280;42502;40.732;-74.254;2023-04-06T04:30:25;101012.03;;;21.65;36.54
56630;BME280;42502;40.732;-74.254;2023-04-06T04:32:26;101027.03;;;21.70;36.43
56630;BME280;42502;40.732;-74.254;2023-04-06T04:34:32;101023.75;;;21.68;36.56
56630;BME280;42502;40.732;-74.254;2023-04-06T04:36:33;101020.94;;;21.68;36.40
56630;BME280;42502;40.732;-74.254;2023-04-06T04:38:34;101012.50;;;21.68;36.38
56630;BME280;42502;40.732;-74.254;2023-04-06T04:40:35;101013.66;;;21.67;36.59
56630;BME280;42502;40.732;-74.254;2023-04-06T04:42:36;101002.41;;;21.67;36.49
56630;BME280;42502;40.732;-74.254;2023-04-06T04:44:37;100991.53;;;21.65;36.79
56630;BME280;42502;40.732;-74.254;2023-04-06T04:46:38;100993.06;;;21.62;36.46
56630;BME280;42502;40.732;-74.254;2023-04-06T04:48:39;100985.81;;;21.61;36.65
56630;BME280;42502;40.732;-74.254;2023-04-06T04:50:39;100995.03;;;21.62;36.39
56630;BME280;42502;40.732;-74.254;2023-04-06T04:52:40;100988.50;;;21.58;36.51
56630;BME280;42502;40.732;-74.254;2023-04-06T04:54:41;100997.84;;;21.62;36.46
56630;BME280;42502;40.732;-74.254;2023-04-06T04:56:42;100994.22;;;21.61;36.52
56630;BME280;42502;40.732;-74.254;2023-04-06T04:58:43;101007.94;;;21.63;36.72
56630;BME280;42502;40.732;-74.254;2023-04-06T05:00:43;101002.31;;;21.63;36.45
56630;BME280;42502;40.732;-74.254;2023-04-06T05:02:44;100998.69;;;21.62;36.50
56630;BME280;42502;40.732;-74.254;2023-04-06T05:04:45;100992.72;;;21.64;36.43
56630;BME280;42502;40.732;-74.254;2023-04-06T05:06:46;100983.34;;;21.60;36.49
56630;BME280;42502;40.732;-74.254;2023-04-06T05:08:47;100991.06;;;21.63;36.43
56630;BME280;42502;40.732;-74.254;2023-04-06T05:10:48;100995.88;;;21.62;36.43
56630;BME280;42502;40.732;-74.254;2023-04-06T05:12:49;100992.94;;;21.59;36.33
56630;BME280;42502;40.732;-74.254;2023-04-06T05:14:49;100989.22;;;21.55;36.40
56630;BME280;42502;40.732;-74.254;2023-04-06T05:16:50;100988.97;;;21.60;36.35
56630;BME280;42502;40.732;-74.254;2023-04-06T05:18:51;100984.41;;;21.55;36.60
56630;BME280;42502;40.732;-74.254;2023-04-06T05:20:53;100988.50;;;21.58;36.41
56630;BME280;42502;40.732;-74.254;2023-04-06T05:22:54;100989.31;;;21.58;36.44
56630;BME280;42502;40.732;-74.254;2023-04-06T05:24:57;100983.59;;;21.55;36.41
56630;BME280;42502;40.732;-74.254;2023-04-06T05:26:58;100988.88;;;21.56;36.34
56630;BME280;42502;40.732;-74.254;2023-04-06T05:29:00;100986.06;;;21.56;36.39
56630;BME280;42502;40.732;-74.254;2023-04-06T05:31:01;100986.41;;;21.55;36.40
56630;BME280;42502;40.732;-74.254;2023-04-06T05:33:02;100994.00;;;21.54;36.25
56630;BME280;42502;40.732;-74.254;2023-04-06T05:35:03;100992.75;;;21.52;36.58
56630;BME280;42502;40.732;-74.254;2023-04-06T05:37:04;100989.56;;;21.53;36.43
56630;BME280;42502;40.732;-74.254;2023-04-06T05:39:05;100989.94;;;21.52;36.47
56630;BME280;42502;40.732;-74.254;2023-04-06T05:41:06;100993.09;;;21.50;36.33
56630;BME280;42502;40.732;-74.254;2023-04-06T05:43:09;100986.63;;;21.50;36.51
56630;BME280;42502;40.732;-74.254;2023-04-06T05:45:11;100986.03;;;21.44;36.21
56630;BME280;42502;40.732;-74.254;2023-04-06T05:47:16;100990.59;;;21.48;36.44
56630;BME280;42502;40.732;-74.254;2023-04-06T05:49:17;100993.78;;;21.47;36.10
56630;BME280;42502;40.732;-74.254;2023-04-06T05:51:18;100996.94;;;21.45;36.40
56630;BME280;42502;40.732;-74.254;2023-04-06T05:53:19;101007.47;;;21.48;36.35
56630;BME280;42502;40.732;-74.254;2023-04-06T05:55:21;101002.66;;;21.49;36.37
56630;BME280;42502;40.732;-74.254;2023-04-06T05:57:22;100994.47;;;21.44;36.34
56630;BME280;42502;40.732;-74.254;2023-04-06T05:59:23;101003.72;;;21.44;36.04
56630;BME280;42502;40.732;-74.254;2023-04-06T06:01:24;100999.97;;;21.40;36.49
56630;BME280;42502;40.732;-74.254;2023-04-06T06:03:25;101004.16;;;21.46;36.20
56630;BME280;42502;40.732;-74.254;2023-04-06T06:05:26;101004.16;;;21.46;36.29
56630;BME280;42502;40.732;-74.254;2023-04-06T06:07:27;100989.66;;;21.44;36.24
56630;BME280;42502;40.732;-74.254;2023-04-06T06:09:27;100985.56;;;21.42;36.31
56630;BME280;42502;40.732;-74.254;2023-04-06T06:11:29;100992.00;;;21.42;36.47
56630;BME280;42502;40.732;-74.254;2023-04-06T06:13:30;100992.72;;;21.39;36.28
56630;BME280;42502;40.732;-74.254;2023-04-06T06:15:31;100991.53;;;21.40;36.49
56630;BME280;42502;40.732;-74.254;2023-04-06T06:17:31;100980.63;;;21.39;36.45
56630;BME280;42502;40.732;-74.254;2023-04-06T06:19:32;100981.47;;;21.39;36.39
56630;BME280;42502;40.732;-74.254;2023-04-06T06:21:33;100981.34;;;21.36;36.45
56630;BME280;42502;40.732;-74.254;2023-04-06T06:23:34;100980.53;;;21.35;36.52
56630;BME280;42502;40.732;-74.254;2023-04-06T06:25:34;100979.69;;;21.35;36.33
56630;BME280;42502;40.732;-74.254;2023-04-06T06:27:35;100966.25;;;21.28;36.39
56630;BME280;42502;40.732;-74.254;2023-04-06T06:29:36;100983.69;;;21.34;36.29
56630;BME280;42502;40.732;-74.254;2023-04-06T06:31:37;100974.31;;;21.29;36.23
56630;BME280;42502;40.732;-74.254;2023-04-06T06:33:38;100973.88;;;21.27;36.18
56630;BME280;42502;40.732;-74.254;2023-04-06T06:35:39;100978.78;;;21.30;36.36
56630;BME280;42502;40.732;-74.254;2023-04-06T06:37:40;100986.38;;;21.30;36.26
56630;BME280;42502;40.732;-74.254;2023-04-06T06:39:40;100965.31;;;21.24;36.36
56630;BME280;42502;40.732;-74.254;2023-04-06T06:41:41;100976.31;;;21.29;36.37
56630;BME280;42502;40.732;-74.254;2023-04-06T06:43:42;100968.25;;;21.27;36.33
56630;BME280;42502;40.732;-74.254;2023-04-06T06:45:45;100968.25;;;21.27;36.40
56630;BME280;42502;40.732;-74.254;2023-04-06T06:47:46;100961.78;;;21.27;36.28
56630;BME280;42502;40.732;-74.254;2023-04-06T06:49:47;100960.97;;;21.26;36.34
56630;BME280;42502;40.732;-74.254;2023-04-06T06:51:48;100963.69;;;21.23;36.18
56630;BME280;42502;40.732;-74.254;2023-04-06T06:53:49;100970.56;;;21.25;36.41
56630;BME280;42502;40.732;-74.254;2023-04-06T06:55:50;100966.50;;;21.23;36.42
56630;BME280;42502;40.732;-74.254;2023-04-06T06:57:51;100973.75;;;21.24;36.22
56630;BME280;42502;40.732;-74.254;2023-04-06T06:59:52;100963.69;;;21.23;36.14
56630;BME280;42502;40.732;-74.254;2023-04-06T07:01:52;100971.28;;;21.22;36.28
56630;BME280;42502;40.732;-74.254;2023-04-06T07:03:53;100970.00;;;21.20;36.45
56630;BME280;42502;40.732;-74.254;2023-04-06T07:05:55;100971.63;;;21.21;36.53
56630;BME280;42502;40.732;-74.254;2023-04-06T07:07:56;100980.06;;;21.21;36.34
56630;BME280;42502;40.732;-74.254;2023-04-06T07:09:56;100964.38;;;21.20;36.20
56630;BME280;42502;40.732;-74.254;2023-04-06T07:11:57;100965.81;;;21.14;36.19
56630;BME280;42502;40.732;-74.254;2023-04-06T07:13:58;100971.53;;;21.17;36.40
56630;BME280;42502;40.732;-74.254;2023-04-06T07:15:59;100980.75;;;21.18;36.26
56630;BME280;42502;40.732;-74.254;2023-04-06T07:18:00;100978.31;;;21.16;36.30
56630;BME280;42502;40.732;-74.254;2023-04-06T07:20:01;100975.50;;;21.16;36.24
56630;BME280;42502;40.732;-74.254;2023-04-06T07:22:02;100977.50;;;21.16;36.19
56630;BME280;42502;40.732;-74.254;2023-04-06T07:24:03;100964.50;;;21.11;36.56
56630;BME280;42502;40.732;-74.254;2023-04-06T07:26:04;100969.31;;;21.10;36.33
56630;BME280;42502;40.732;-74.254;2023-04-06T07:28:05;100959.69;;;21.11;36.27
56630;BME280;42502;40.732;-74.254;2023-04-06T07:30:06;100951.63;;;21.10;36.35
56630;BME280;42502;40.732;-74.254;2023-04-06T07:32:08;100931.59;;;21.11;36.36
56630;BME280;42502;40.732;-74.254;2023-04-06T07:34:08;100921.91;;;21.09;36.41
56630;BME280;42502;40.732;-74.254;2023-04-06T07:36:09;100941.22;;;21.10;36.40
56630;BME280;42502;40.732;-74.254;2023-04-06T07:38:10;100934.41;;;21.11;36.36
56630;BME280;42502;40.732;-74.254;2023-04-06T07:40:11;100924.38;;;21.10;36.35
56630;BME280;42502;40.732;-74.254;2023-04-06T07:42:12;100915.81;;;21.07;36.23
56630;BME280;42502;40.732;-74.254;2023-04-06T07:44:13;100920.63;;;21.06;36.19
56630;BME280;42502;40.732;-74.254;2023-04-06T07:46:13;100893.81;;;21.09;36.30
56630;BME280;42502;40.732;-74.254;2023-04-06T07:48:14;100882.59;;;21.09;36.34
56630;BME280;42502;40.732;-74.254;2023-04-06T07:50:15;100888.56;;;21.07;36.18
56630;BME280;42502;40.732;-74.254;2023-04-06T07:52:16;100901.75;;;21.07;36.37
56630;BME280;42502;40.732;-74.254;2023-04-06T07:54:17;100915.00;;;21.06;36.31
56630;BME280;42502;40.732;-74.254;2023-04-06T07:56:18;100915.69;;;21.03;36.33
56630;BME280;42502;40.732;-74.254;2023-04-06T07:58:19;100913.59;;;21.00;36.23
56630;BME280;42502;40.732;-74.254;2023-04-06T08:00:20;100902.47;;;21.04;36.24
56630;BME280;42502;40.732;-74.254;2023-04-06T08:02:21;100890.41;;;21.03;36.32
56630;BME280;42502;40.732;-74.254;2023-04-06T08:04:22;100885.50;;;21.00;36.40
56630;BME280;42502;40.732;-74.254;2023-04-06T08:06:23;100838.56;;;21.01;36.42
56630;BME280;42502;40.732;-74.254;2023-04-06T08:08:24;100850.25;;;21.03;36.18
56630;BME280;42502;40.732;-74.254;2023-04-06T08:10:25;100849.34;;;20.99;36.41
56630;BME280;42502;40.732;-74.254;2023-04-06T08:12:25;100867.09;;;21.03;36.22
56630;BME280;42502;40.732;-74.254;2023-04-06T08:14:26;100875.88;;;21.01;36.46
56630;BME280;42502;40.732;-74.254;2023-04-06T08:16:27;100875.78;;;20.98;36.33
56630;BME280;42502;40.732;-74.254;2023-04-06T08:18:28;100894.28;;;20.99;36.39
56630;BME280;42502;40.732;-74.254;2023-04-06T08:20:30;100932.78;;;20.98;36.37
56630;BME280;42502;40.732;-74.254;2023-04-06T08:22:31;100936.78;;;20.97;36.17
56630;BME280;42502;40.732;-74.254;2023-04-06T08:24:31;100932.78;;;20.98;36.35
56630;BME280;42502;40.732;-74.254;2023-04-06T08:26:32;100927.03;;;20.94;36.28
56630;BME280;42502;40.732;-74.254;2023-04-06T08:28:33;100913.34;;;20.93;36.28
56630;BME280;42502;40.732;-74.254;2023-04-06T08:30:35;100910.09;;;20.91;36.35
56630;BME280;42502;40.732;-74.254;2023-04-06T08:32:36;100899.78;;;20.95;36.36
56630;BME280;42502;40.732;-74.254;2023-04-06T08:34:37;100892.53;;;20.94;36.15
56630;BME280;42502;40.732;-74.254;2023-04-06T08:36:37;100893.81;;;20.97;36.19
56630;BME280;42502;40.732;-74.254;2023-04-06T08:38:39;100870.88;;;20.94;36.32
56630;BME280;42502;40.732;-74.254;2023-04-06T08:40:40;100873.34;;;20.96;36.26
56630;BME280;42502;40.732;-74.254;2023-04-06T08:42:52;100870.88;;;20.94;36.30
56630;BME280;42502;40.732;-74.254;2023-04-06T08:44:54;100842.69;;;20.91;36.17
56630;BME280;42502;40.732;-74.254;2023-04-06T08:46:56;100840.59;;;20.88;36.15
56630;BME280;42502;40.732;-74.254;2023-04-06T08:48:59;100843.50;;;20.91;36.17
56630;BME280;42502;40.732;-74.254;2023-04-06T08:51:01;100837.06;;;20.91;36.12
56630;BME280;42502;40.732;-74.254;2023-04-06T08:53:02;100853.94;;;20.91;36.21
56630;BME280;42502;40.732;-74.254;2023-04-06T08:55:03;100833.34;;;20.74;36.18
56630;BME280;42502;40.732;-74.254;2023-04-06T08:57:05;100846.44;;;20.83;36.27
56630;BME280;42502;40.732;-74.254;2023-04-06T08:59:06;100860.25;;;20.88;36.09
56630;BME280;42502;40.732;-74.254;2023-04-06T09:01:11;100846.44;;;20.83;36.31
56630;BME280;42502;40.732;-74.254;2023-04-06T09:03:14;100852.97;;;20.87;36.18
56630;BME280;42502;40.732;-74.254;2023-04-06T09:05:15;100855.09;;;20.90;36.24
56630;BME280;42502;40.732;-74.254;2023-04-06T09:07:16;100869.84;;;20.87;36.22
56630;BME280;42502;40.732;-74.254;2023-04-06T09:09:17;100877.78;;;20.85;36.34
56630;BME280;42502;40.732;-74.254;2023-04-06T09:11:19;100890.28;;;20.87;36.21
56630;BME280;42502;40.732;-74.254;2023-04-06T09:15:21;100898.63;;;20.84;36.13
56630;BME280;42502;40.732;-74.254;2023-04-06T09:17:30;100901.41;;;20.84;36.14
56630;BME280;42502;40.732;-74.254;2023-04-06T09:19:32;100906.44;;;20.78;36.33
56630;BME280;42502;40.732;-74.254;2023-04-06T09:21:33;100911.84;;;20.83;36.24
56630;BME280;42502;40.732;-74.254;2023-04-06T09:23:35;100910.19;;;20.82;36.16
56630;BME280;42502;40.732;-74.254;2023-04-06T09:27:37;100907.28;;;20.79;36.37
56630;BME280;42502;40.732;-74.254;2023-04-06T09:29:39;100913.34;;;20.81;36.21
56630;BME280;42502;40.732;-74.254;2023-04-06T09:31:40;100913.56;;;20.75;36.25
56630;BME280;42502;40.732;-74.254;2023-04-06T09:33:43;100900.22;;;20.72;36.02
56630;BME280;42502;40.732;-74.254;2023-04-06T09:35:49;100914.06;;;20.77;36.10
56630;BME280;42502;40.732;-74.254;2023-04-06T09:37:51;100909.25;;;20.78;36.09
56630;BME280;42502;40.732;-74.254;2023-04-06T09:40:02;100913.56;;;20.75;36.18
56630;BME280;42502;40.732;-74.254;2023-04-06T09:42:03;100920.03;;;20.76;36.01
56630;BME280;42502;40.732;-74.254;2023-04-06T09:44:11;100934.06;;;20.76;36.17
56630;BME280;42502;40.732;-74.254;2023-04-06T09:46:12;100942.47;;;20.76;36.20
56630;BME280;42502;40.732;-74.254;2023-04-06T09:48:14;100954.88;;;20.75;36.25
56630;BME280;42502;40.732;-74.254;2023-04-06T09:50:15;100951.25;;;20.74;36.06
56630;BME280;42502;40.732;-74.254;2023-04-06T09:52:17;100946.78;;;20.73;35.87
56630;BME280;42502;40.732;-74.254;2023-04-06T09:54:21;100942.34;;;20.72;36.12
56630;BME280;42502;40.732;-74.254;2023-04-06T09:56:24;100941.53;;;20.72;36.24
56630;BME280;42502;40.732;-74.254;2023-04-06T09:58:34;100940.72;;;20.71;36.09
56630;BME280;42502;40.732;-74.254;2023-04-06T10:00:51;100927.84;;;20.70;36.10
56630;BME280;42502;40.732;-74.254;2023-04-06T10:05:52;100937.06;;;20.71;36.04
56630;BME280;42502;40.732;-74.254;2023-04-06T10:07:57;100931.47;;;20.71;36.02
56630;BME280;42502;40.732;-74.254;2023-04-06T10:10:02;100927.38;;;20.68;36.07
56630;BME280;42502;40.732;-74.254;2023-04-06T10:12:04;100931.81;;;20.69;36.16
56630;BME280;42502;40.732;-74.254;2023-04-06T10:14:06;100917.53;;;20.62;35.88
56630;BME280;42502;40.732;-74.254;2023-04-06T10:16:07;100942.59;;;20.67;36.13
56630;BME280;42502;40.732;-74.254;2023-04-06T10:18:08;100950.38;;;20.62;36.01
56630;BME280;42502;40.732;-74.254;2023-04-06T10:20:25;100970.19;;;20.65;36.20
56630;BME280;42502;40.732;-74.254;2023-04-06T10:22:36;100959.63;;;20.62;35.92
56630;BME280;42502;40.732;-74.254;2023-04-06T10:24:37;100949.66;;;20.65;36.06
56630;BME280;42502;40.732;-74.254;2023-04-06T10:26:38;100954.00;;;20.62;35.99